Zenith Leader — 2ACU6 — position and weather

sailwx.info

Track history (hours):
 
Tides and Currents Weather Stations Pressure Air Temp Water Temp Dewpoint Dewpoint Depression Visibility Wind Speed Wind Dir Waves Ship Positions

Zenith Leader

Last reported at 2017-Jun-23 12:00 UTC. Time now 2017-Jun-23 12:09 UTC.
Position N 37°03' W 001°11'.

Length 200 m; draft 8.4 m.

Type: Cargo ship. MMSI: 235058697.

Date/timePositionNaut miles runAvg speedWind from/ knotsBaromVisibWave heightAir tempDewpointWater temp
2017-Jun-23 12:00N 37°03' W 001°11'815.7
2017-Jun-23 11:30N 36°59' W 001°19'815.6
2017-Jun-23 11:00N 36°54' W 001°26'1215.7
2017-Jun-23 10:16N 36°46' W 001°36'416.0
2017-Jun-23 10:00N 36°43' W 001°40'816.0
2017-Jun-23 09:30N 36°37' W 001°48'816.4
2017-Jun-23 09:00N 36°32' W 001°55'2616.3
2017-Jun-23 07:25N 36°21' W 002°24'716.2
2017-Jun-23 06:58N 36°20' W 002°33'12816.3
2017-Jun-22 23:09N 35°59' W 005°09'317.3
2017-Jun-22 23:00N 35°59' W 005°13'815.2
2017-Jun-22 22:30N 35°58' W 005°22'714.0
2017-Jun-22 22:00N 35°56' W 005°30'713.4
2017-Jun-22 21:30N 35°55' W 005°38'2512.6
2017-Jun-22 19:32N 35°54' W 006°09'415.7
2017-Jun-22 19:16N 35°54' W 006°14'616.0
2017-Jun-22 18:55N 35°55' W 006°21'1116.3
2017-Jun-22 18:16N 35°59' W 006°33'416.3
2017-Jun-22 18:00N 35°60' W 006°38'816.1
2017-Jun-22 17:30N 36°02' W 006°48'816.0
2017-Jun-22 17:00N 36°03' W 006°58'916.1
2017-Jun-22 16:27N 36°06' W 007°09'816.0
2017-Jun-22 15:57N 36°08' W 007°18'716.3
2017-Jun-22 15:30N 36°09' W 007°27'815.9
2017-Jun-22 14:59N 36°12' W 007°37'1615.7
2017-Jun-22 13:58N 36°16' W 007°56'1816.0
2017-Jun-22 12:51N 36°21' W 008°17'616.3
2017-Jun-22 12:27N 36°23' W 008°25'916.1
2017-Jun-22 11:53N 36°25' W 008°36'615.8
2017-Jun-22 11:31N 36°27' W 008°43'816.0
2017-Jun-22 11:00N 36°29' W 008°53'815.8
2017-Jun-22 10:30N 36°30' W 009°02'815.7
2017-Jun-22 10:00N 36°32' W 009°12'815.1
2017-Jun-22 09:30N 36°36' W 009°20'815.7
2017-Jun-22 09:00N 36°42' W 009°26'815.3
2017-Jun-22 08:30N 36°48' W 009°33'715.2
2017-Jun-22 08:01N 36°55' W 009°35'815.7
2017-Jun-22 07:30N 37°03' W 009°37'1016.0
2017-Jun-22 06:53N 37°12' W 009°40'615.9
2017-Jun-22 06:30N 37°18' W 009°41'815.8
2017-Jun-22 05:59N 37°26' W 009°43'816.4
2017-Jun-22 05:30N 37°34' W 009°46'916.3
2017-Jun-22 04:57N 37°43' W 009°48'716.0
2017-Jun-22 04:30N 37°50' W 009°50'816.2
2017-Jun-22 04:01N 37°58' W 009°53'816.3
2017-Jun-22 03:30N 38°05' W 009°55'816.3
2017-Jun-22 03:00N 38°13' W 009°58'816.2
2017-Jun-22 02:30N 38°21' W 009°60'816.2
2017-Jun-22 02:00N 38°29' W 010°02'816.3
2017-Jun-22 01:30N 38°37' W 010°04'815.9
2017-Jun-22 01:01N 38°45' W 010°06'815.8
2017-Jun-22 00:30N 38°53' W 010°06'815.8
2017-Jun-22 00:01N 39°01' W 010°06'815.7
2017-Jun-21 23:30N 39°09' W 010°06'816.1
2017-Jun-21 23:00N 39°17' W 010°06'916.5
2017-Jun-21 22:29N 39°25' W 010°06'816.2
2017-Jun-21 22:00N 39°33' W 010°06'816.2
2017-Jun-21 21:30N 39°41' W 010°06'1716.2
2017-Jun-21 20:29N 39°58' W 010°06'816.0
2017-Jun-21 19:59N 40°06' W 010°06'916.1
2017-Jun-21 19:24N 40°15' W 010°06'916.3
2017-Jun-21 18:51N 40°24' W 010°06'27015.5
2017-Jun-21 01:27N 44°49' W 008°58'715.4
2017-Jun-21 01:01N 44°55' W 008°54'815.6
2017-Jun-21 00:31N 45°02' W 008°49'815.5
2017-Jun-21 00:00N 45°09' W 008°44'815.2
2017-Jun-20 23:30N 45°16' W 008°39'815.8
2017-Jun-20 23:01N 45°23' W 008°34'815.9
2017-Jun-20 22:31N 45°30' W 008°29'815.5
2017-Jun-20 22:00N 45°37' W 008°24'815.7
2017-Jun-20 21:30N 45°44' W 008°19'815.7
2017-Jun-20 21:00N 45°51' W 008°14'1015.8
2017-Jun-20 20:23N 45°60' W 008°07'1315.6
2017-Jun-20 19:34N 46°10' W 007°57'215.6
2017-Jun-20 19:28N 46°12' W 007°55'1015.4
2017-Jun-20 18:48N 46°20' W 007°48'515.5
2017-Jun-20 18:29N 46°25' W 007°44'1415.4
2017-Jun-20 17:33N 46°37' W 007°34'116.0
2017-Jun-20 17:29N 46°38' W 007°34'816.0
2017-Jun-20 17:00N 46°45' W 007°28'815.8
2017-Jun-20 16:30N 46°52' W 007°24'3115.8
2017-Jun-20 14:33N 47°19' W 007°02'115.4
2017-Jun-20 14:30N 47°20' W 007°02'2615.8
2017-Jun-20 12:52N 47°43' W 006°44'715.6
2017-Jun-20 12:26N 47°49' W 006°40'3115.1
2017-Jun-20 10:21N 48°17' W 006°17'515.1
2017-Jun-20 10:00N 48°21' W 006°14'715.1
2017-Jun-20 09:30N 48°28' W 006°09'815.3
2017-Jun-20 08:58N 48°35' W 006°03'815.6
2017-Jun-20 08:26N 48°43' W 005°56'715.9
2017-Jun-20 08:00N 48°48' W 005°52'816.1
2017-Jun-20 07:30N 48°55' W 005°45'816.6
2017-Jun-20 07:01N 48°60' W 005°34'816.8
2017-Jun-20 06:30N 49°04' W 005°23'815.9
2017-Jun-20 05:59N 49°08' W 005°12'612.6
2017-Jun-20 05:30N 49°11' W 005°04'611.6
2017-Jun-20 05:00N 49°14' W 004°56'612.3
2017-Jun-20 04:29N 49°17' W 004°48'715.8
2017-Jun-20 04:01N 49°21' W 004°38'1015.9
2017-Jun-20 03:24N 49°26' W 004°25'715.5
2017-Jun-20 02:56N 49°30' W 004°16'715.2
2017-Jun-20 02:27N 49°33' W 004°06'715.1
2017-Jun-20 01:58N 49°37' W 003°56'715.1
2017-Jun-20 01:30N 49°41' W 003°47'714.9
2017-Jun-20 01:00N 49°45' W 003°37'815.2
2017-Jun-20 00:30N 49°48' W 003°27'815.6
2017-Jun-20 00:00N 49°52' W 003°17'816.1
2017-Jun-19 23:30N 49°56' W 003°06'816.8
2017-Jun-19 23:00N 49°59' W 002°54'917.3
2017-Jun-19 22:30N 50°03' W 002°41'917.9
2017-Jun-19 22:00N 50°05' W 002°28'918.3
2017-Jun-19 21:30N 50°07' W 002°14'918.5
2017-Jun-19 21:00N 50°10' W 002°00'1218.3
2017-Jun-19 20:21N 50°13' W 001°42'617.8
2017-Jun-19 20:00N 50°15' W 001°33'917.0
2017-Jun-19 19:28N 50°20' W 001°21'816.8
2017-Jun-19 19:00N 50°25' W 001°11'816.4
2017-Jun-19 18:31N 50°29' W 001°01'815.3
2017-Jun-19 18:00N 50°37' W 000°59'510.3
2017-Jun-19 17:30N 50°42' W 000°58'611.5
2017-Jun-19 17:01N 50°45' W 001°06'612.3
2017-Jun-19 16:30N 50°46' W 001°16'4 7.7
2017-Jun-19 16:00N 50°50' W 001°18'4 8.9
2017-Jun-19 15:30N 50°53' W 001°23'1 1.7
2017-Jun-19 14:59N 50°53' W 001°24'0 0.0
2017-Jun-19 13:59N 50°53' W 001°24'0 0.0
2017-Jun-19 13:26N 50°53' W 001°24'0 0.0
2017-Jun-19 12:59N 50°53' W 001°24'0 0.0
2017-Jun-19 12:29N 50°53' W 001°24'0 0.0
2017-Jun-19 11:59N 50°53' W 001°24'0 0.0
2017-Jun-19 11:29N 50°53' W 001°24'0 0.0
2017-Jun-19 10:59N 50°53' W 001°24'0 0.0
2017-Jun-19 10:29N 50°53' W 001°24'0 0.0
2017-Jun-19 09:56N 50°53' W 001°24'0 0.0
2017-Jun-19 09:29N 50°53' W 001°24'0 0.0
2017-Jun-19 08:59N 50°53' W 001°24'0 0.0
2017-Jun-19 08:26N 50°53' W 001°24'0 0.0
2017-Jun-19 07:59N 50°53' W 001°24'0 0.0
2017-Jun-19 07:29N 50°53' W 001°24'0 0.0
2017-Jun-19 06:59N 50°53' W 001°24'0 0.0
2017-Jun-19 06:29N 50°53' W 001°24'0 0.0
2017-Jun-19 05:59N 50°53' W 001°24'0 0.0
2017-Jun-19 05:29N 50°53' W 001°24'0 0.0
2017-Jun-19 04:59N 50°53' W 001°24'0 0.0
2017-Jun-19 04:31N 50°53' W 001°24'2 3.5
2017-Jun-19 04:01N 50°52' W 001°22'5 9.6
2017-Jun-19 03:31N 50°48' W 001°18'5 9.0
2017-Jun-19 03:00N 50°46' W 001°12'713.4
2017-Jun-19 02:30N 50°43' W 001°02'510.6
2017-Jun-19 02:01N 50°40' W 000°55'3 6.6
2017-Jun-19 01:30N 50°38' W 000°51'3 5.8
2017-Jun-19 01:00N 50°37' W 000°47'4 8.6
2017-Jun-19 00:30N 50°36' W 000°40'5 9.6
2017-Jun-19 00:00N 50°35' W 000°33'611.5
2017-Jun-18 23:31N 50°34' W 000°24'713.7
2017-Jun-18 23:00N 50°33' W 000°13'815.3
2017-Jun-18 22:30N 50°32' W 000°01'917.3
2017-Jun-18 22:00N 50°35' E 000°12'917.3
2017-Jun-18 21:30N 50°37' E 000°25'816.8
2017-Jun-18 21:00N 50°40' E 000°37'816.6
2017-Jun-18 20:30N 50°45' E 000°48'816.1
2017-Jun-18 20:00N 50°49' E 000°58'815.7
2017-Jun-18 19:30N 50°54' E 001°08'815.0
2017-Jun-18 19:00N 50°59' E 001°17'714.6
2017-Jun-18 18:30N 51°04' E 001°26'815.2
2017-Jun-18 18:00N 51°08' E 001°36'815.3
2017-Jun-18 17:31N 51°13' E 001°45'815.8
2017-Jun-18 17:00N 51°20' E 001°53'816.5
2017-Jun-18 16:31N 51°26' E 002°00'917.1
2017-Jun-18 16:01N 51°33' E 002°09'917.1
2017-Jun-18 15:30N 51°39' E 002°18'917.5
2017-Jun-18 15:00N 51°46' E 002°27'917.4
2017-Jun-18 14:30N 51°53' E 002°36'917.1
2017-Jun-18 13:57N 52°00' E 002°46'816.9
2017-Jun-18 13:30N 52°06' E 002°54'816.6
2017-Jun-18 13:00N 52°12' E 003°03'816.2
2017-Jun-18 12:30N 52°19' E 003°11'815.8
2017-Jun-18 12:00N 52°25' E 003°17'815.4
2017-Jun-18 11:30N 52°32' E 003°24'815.1
2017-Jun-18 11:01N 52°38' E 003°31'714.8
2017-Jun-18 10:30N 52°44' E 003°39'714.7
2017-Jun-18 10:00N 52°49' E 003°47'714.5
2017-Jun-18 09:30N 52°55' E 003°55'714.5
2017-Jun-18 09:00N 52°60' E 004°04'714.8
2017-Jun-18 08:30N 53°05' E 004°13'815.4
2017-Jun-18 08:00N 53°10' E 004°22'815.7
2017-Jun-18 07:30N 53°17' E 004°28'816.3
2017-Jun-18 07:00N 53°24' E 004°34'815.9
2017-Jun-18 06:30N 53°29' E 004°45'816.7
2017-Jun-18 06:00N 53°34' E 004°57'816.5
2017-Jun-18 05:30N 53°37' E 005°10'816.2
2017-Jun-18 05:00N 53°39' E 005°23'816.1
2017-Jun-18 04:30N 53°42' E 005°36'815.5
2017-Jun-18 04:00N 53°45' E 005°48'815.1
2017-Jun-18 03:30N 53°47' E 006°00'815.2
2017-Jun-18 03:00N 53°49' E 006°12'714.7
2017-Jun-18 02:30N 53°51' E 006°24'814.5
2017-Jun-18 01:57N 53°52' E 006°38'714.6
2017-Jun-18 01:26N 53°54' E 006°50'1914.7
2017-Jun-18 00:08N 53°58' E 007°22'2212.3
2017-Jun-17 22:20N 53°52' E 007°58'515.2
2017-Jun-17 22:00N 53°50' E 008°06'816.4
2017-Jun-17 21:30N 53°44' E 008°15'816.5
2017-Jun-17 21:00N 53°38' E 008°26'511.0
2017-Jun-17 20:30N 53°34' E 008°32'1 1.0
2017-Jun-17 20:00N 53°34' E 008°33'1 1.0
2017-Jun-17 19:28N 53°35' E 008°33'0 0.0
2017-Jun-17 18:58N 53°35' E 008°33'0 0.0
2017-Jun-17 18:30N 53°35' E 008°33'0 0.0
2017-Jun-17 17:58N 53°35' E 008°33'0 0.0
2017-Jun-17 17:28N 53°35' E 008°33'0 0.0
2017-Jun-17 17:00N 53°35' E 008°33'0 0.0
2017-Jun-17 16:31N 53°35' E 008°33'0 0.0
2017-Jun-17 16:01N 53°35' E 008°33'0 0.0
2017-Jun-17 15:28N 53°35' E 008°33'0 0.0
2017-Jun-17 15:01N 53°35' E 008°33'0 0.0
2017-Jun-17 13:58N 53°35' E 008°33'0 0.0
2017-Jun-17 13:28N 53°35' E 008°33'0 0.0
2017-Jun-17 13:00N 53°35' E 008°33'0 0.0
2017-Jun-17 12:31N 53°35' E 008°33'0 0.0
2017-Jun-17 12:01N 53°35' E 008°33'0 0.0
2017-Jun-17 11:28N 53°35' E 008°33'0 0.0
2017-Jun-17 10:58N 53°35' E 008°33'0 0.0
2017-Jun-17 10:31N 53°35' E 008°33'0 0.0
2017-Jun-17 10:01N 53°35' E 008°33'0 0.0
2017-Jun-17 09:28N 53°35' E 008°33'0 0.0
2017-Jun-17 09:01N 53°35' E 008°33'0 0.0
2017-Jun-17 08:28N 53°35' E 008°33'0 0.0
2017-Jun-17 08:01N 53°35' E 008°33'0 0.0
2017-Jun-17 07:31N 53°35' E 008°33'0 0.0
2017-Jun-17 06:58N 53°35' E 008°33'0 0.0
2017-Jun-17 06:31N 53°35' E 008°33'0 0.0
2017-Jun-17 06:00N 53°35' E 008°33'0 0.0
2017-Jun-17 05:28N 53°35' E 008°33'0 0.0
2017-Jun-17 05:01N 53°35' E 008°33'0 0.0
2017-Jun-17 04:28N 53°35' E 008°33'0 0.0
2017-Jun-17 04:00N 53°35' E 008°33'0 0.0
2017-Jun-17 03:31N 53°35' E 008°33'0 0.0
2017-Jun-17 03:01N 53°35' E 008°33'0 0.0
2017-Jun-17 02:28N 53°35' E 008°33'0 0.0
2017-Jun-17 02:00N 53°35' E 008°33'0 0.9
2017-Jun-17 01:30N 53°34' E 008°33'0 0.8
2017-Jun-17 01:00N 53°34' E 008°33'4 7.2
2017-Jun-17 00:30N 53°37' E 008°29'713.2
2017-Jun-17 00:00N 53°41' E 008°21'816.1
2017-Jun-16 23:30N 53°46' E 008°10'815.6
2017-Jun-16 23:00N 53°51' E 007°60'95 6.2
2017-Jun-16 07:35N 53°33' E 005°22'216.0
2017-Jun-16 07:26N 53°32' E 005°18'715.7
2017-Jun-16 07:00N 53°30' E 005°07'815.6
2017-Jun-16 06:31N 53°27' E 004°55'915.1
2017-Jun-16 05:56N 53°23' E 004°42'715.0
2017-Jun-16 05:30N 53°18' E 004°37'815.2
2017-Jun-16 05:00N 53°11' E 004°32'715.0
2017-Jun-16 04:31N 53°04' E 004°26'715.0
2017-Jun-16 04:01N 52°58' E 004°19'715.0
2017-Jun-16 03:31N 52°51' E 004°14'714.8
2017-Jun-16 03:01N 52°45' E 004°07'715.0
2017-Jun-16 02:31N 52°40' E 003°58'714.8
2017-Jun-16 02:00N 52°35' E 003°49'714.7
2017-Jun-16 01:30N 52°30' E 003°41'714.6
2017-Jun-16 01:00N 52°25' E 003°31'714.5
2017-Jun-16 00:30N 52°20' E 003°23'1214.4
2017-Jun-15 23:40N 52°11' E 003°10'314.7
2017-Jun-15 23:27N 52°08' E 003°07'814.8
2017-Jun-15 22:56N 52°02' E 002°60'715.2
2017-Jun-15 22:28N 51°57' E 002°52'715.3
2017-Jun-15 22:00N 51°50' E 002°46'815.5
2017-Jun-15 21:30N 51°43' E 002°42'815.4
2017-Jun-15 21:01N 51°36' E 002°43'816.0
2017-Jun-15 20:31N 51°28' E 002°42'611.7
2017-Jun-15 20:00N 51°22' E 002°45'611.1
2017-Jun-15 19:30N 51°23' E 002°54'713.1
2017-Jun-15 19:00N 51°24' E 003°05'611.4
2017-Jun-15 18:30N 51°21' E 003°12'1 2.8
2017-Jun-15 18:00N 51°20' E 003°13'0 0.0
2017-Jun-15 17:30N 51°20' E 003°13'0 0.4
2017-Jun-15 17:00N 51°20' E 003°13'1 2.8
2017-Jun-15 16:28N 51°18' E 003°14'0 0.0
2017-Jun-15 15:58N 51°18' E 003°14'0 0.0
2017-Jun-15 15:28N 51°18' E 003°14'0 0.0
2017-Jun-15 14:58N 51°18' E 003°14'0 0.0
2017-Jun-15 14:28N 51°18' E 003°14'0 0.0
2017-Jun-15 13:28N 51°18' E 003°14'0 0.0
2017-Jun-15 12:58N 51°18' E 003°14'0 0.0
2017-Jun-15 12:30N 51°18' E 003°14'0 0.0
2017-Jun-15 11:58N 51°18' E 003°14'0 0.0
2017-Jun-15 11:28N 51°18' E 003°14'0 0.0
2017-Jun-15 10:58N 51°18' E 003°14'0 0.0
2017-Jun-15 10:28N 51°18' E 003°14'0 0.0
2017-Jun-15 09:58N 51°18' E 003°14'0 0.0
2017-Jun-15 09:28N 51°18' E 003°14'0 0.0
2017-Jun-15 08:59N 51°18' E 003°14'0 0.0
2017-Jun-15 08:28N 51°18' E 003°14'0 0.0
2017-Jun-15 07:58N 51°18' E 003°14'0 0.0
2017-Jun-15 07:28N 51°18' E 003°14'0 0.0
2017-Jun-15 06:58N 51°18' E 003°14'0 0.0
2017-Jun-15 06:28N 51°18' E 003°14'0 0.0
2017-Jun-15 05:58N 51°18' E 003°14'0 0.0
2017-Jun-15 05:28N 51°18' E 003°14'0 0.0
2017-Jun-15 04:58N 51°18' E 003°14'0 0.0
2017-Jun-15 04:28N 51°18' E 003°14'0 0.0
2017-Jun-15 03:58N 51°18' E 003°14'0 0.0
2017-Jun-15 03:28N 51°18' E 003°14'0 0.0
2017-Jun-15 02:58N 51°18' E 003°14'0 0.0
2017-Jun-15 02:28N 51°18' E 003°14'0 0.0
2017-Jun-15 01:58N 51°18' E 003°14'0 0.0
2017-Jun-15 01:28N 51°18' E 003°14'0 0.0
2017-Jun-15 00:58N 51°18' E 003°14'0 0.0
2017-Jun-15 00:28N 51°18' E 003°14'0 0.0
2017-Jun-14 23:58N 51°18' E 003°14'0 0.0
2017-Jun-14 23:28N 51°18' E 003°14'0 0.0
2017-Jun-14 22:58N 51°18' E 003°14'0 0.0
2017-Jun-14 22:28N 51°18' E 003°14'0 0.0
2017-Jun-14 21:58N 51°18' E 003°14'0 0.0
2017-Jun-14 21:28N 51°18' E 003°14'0 0.0
2017-Jun-14 20:58N 51°18' E 003°14'0 0.0
2017-Jun-14 20:28N 51°18' E 003°14'0 0.0
2017-Jun-14 19:58N 51°18' E 003°14'0 0.0
2017-Jun-14 19:28N 51°18' E 003°14'0 0.0
2017-Jun-14 18:58N 51°18' E 003°14'0 0.0
2017-Jun-14 18:28N 51°18' E 003°14'0 0.0
2017-Jun-14 17:58N 51°18' E 003°14'0 0.0
2017-Jun-14 17:28N 51°18' E 003°14'0 0.0
2017-Jun-14 16:58N 51°18' E 003°14'0 0.0
2017-Jun-14 16:28N 51°18' E 003°14'0 0.0
2017-Jun-14 15:58N 51°18' E 003°14'0 0.0
2017-Jun-14 15:28N 51°18' E 003°14'0 0.0
2017-Jun-14 14:58N 51°18' E 003°14'0 0.0
2017-Jun-14 14:00N 51°18' E 003°14'0 0.0
2017-Jun-14 13:30N 51°18' E 003°14'0 0.0
2017-Jun-14 13:00N 51°18' E 003°14'2 3.4
2017-Jun-14 12:30N 51°20' E 003°13'0 0.0
2017-Jun-14 12:00N 51°20' E 003°13'1 1.9
2017-Jun-14 11:30N 51°21' E 003°12'5 9.8
2017-Jun-14 11:00N 51°24' E 003°06'713.5
2017-Jun-14 10:30N 51°22' E 002°56'713.3
2017-Jun-14 10:00N 51°21' E 002°45'5 9.7
2017-Jun-14 09:30N 51°21' E 002°37'510.2
2017-Jun-14 09:01N 51°22' E 002°29'714.6
2017-Jun-14 08:30N 51°18' E 002°19'815.4
2017-Jun-14 08:01N 51°14' E 002°08'815.3
2017-Jun-14 07:30N 51°10' E 001°58'815.3
2017-Jun-14 07:01N 51°06' E 001°47'815.6
2017-Jun-14 06:31N 51°02' E 001°38'816.0
2017-Jun-14 06:01N 50°55' E 001°29'816.9
2017-Jun-14 05:30N 50°47' E 001°25'816.3
2017-Jun-14 05:01N 50°40' E 001°20'2116.0
2017-Jun-14 03:41N 50°28' E 000°52'315.8
2017-Jun-14 03:29N 50°27' E 000°48'1015.7
2017-Jun-14 02:49N 50°25' E 000°32'515.7
2017-Jun-14 02:30N 50°23' E 000°24'815.7
2017-Jun-14 02:00N 50°21' E 000°12'816.1
2017-Jun-14 01:31N 50°19' E 000°00'816.5
2017-Jun-14 01:01N 50°17' W 000°12'817.0
2017-Jun-14 00:31N 50°15' W 000°25'917.5
2017-Jun-14 00:01N 50°13' W 000°38'918.1
2017-Jun-13 23:31N 50°11' W 000°52'918.4
2017-Jun-13 23:01N 50°08' W 001°06'918.6
2017-Jun-13 22:31N 50°05' W 001°20'918.9
2017-Jun-13 22:01N 50°03' W 001°34'919.0
2017-Jun-13 21:31N 49°60' W 001°48'918.5
2017-Jun-13 21:01N 49°58' W 002°02'918.1
2017-Jun-13 20:31N 49°56' W 002°16'917.2
2017-Jun-13 20:01N 49°54' W 002°29'816.8
2017-Jun-13 19:31N 49°52' W 002°42'816.6
2017-Jun-13 19:01N 49°50' W 002°54'816.4
2017-Jun-13 18:30N 49°49' W 003°07'816.2
2017-Jun-13 18:00N 49°48' W 003°19'816.0
2017-Jun-13 17:31N 49°47' W 003°31'815.8
2017-Jun-13 17:01N 49°46' W 003°43'815.7
2017-Jun-13 16:31N 49°45' W 003°55'815.6
2017-Jun-13 16:01N 49°44' W 004°07'815.6
2017-Jun-13 15:31N 49°43' W 004°19'815.5
2017-Jun-13 15:01N 49°43' W 004°31'1515.3
2017-Jun-13 14:01N 49°41' W 004°55'815.0
2017-Jun-13 13:31N 49°42' W 005°07'815.0
2017-Jun-13 12:58N 49°43' W 005°19'715.0
2017-Jun-13 12:30N 49°43' W 005°30'815.2
2017-Jun-13 12:01N 49°43' W 005°41'  
Track history (hours):
 
Tides and Currents Weather Stations Pressure Air Temp Water Temp Dewpoint Dewpoint Depression Visibility Wind Speed Wind Dir Waves Ship Positions

Zenith Leader

Last reported at 2017-Jun-23 12:00 UTC. Time now 2017-Jun-23 12:09 UTC.
Position N 37°03' W 001°11'.

Length 200 m; draft 8.4 m.

Type: Cargo ship. MMSI: 235058697.

Date/timePositionNaut miles runAvg speedWind from/ knotsBaromVisibWave heightAir tempDewpointWater temp
2017-Jun-23 12:00N 37°03' W 001°11'815.7
2017-Jun-23 11:30N 36°59' W 001°19'815.6
2017-Jun-23 11:00N 36°54' W 001°26'1215.7
2017-Jun-23 10:16N 36°46' W 001°36'416.0
2017-Jun-23 10:00N 36°43' W 001°40'816.0
2017-Jun-23 09:30N 36°37' W 001°48'816.4
2017-Jun-23 09:00N 36°32' W 001°55'2616.3
2017-Jun-23 07:25N 36°21' W 002°24'716.2
2017-Jun-23 06:58N 36°20' W 002°33'12816.3
2017-Jun-22 23:09N 35°59' W 005°09'317.3
2017-Jun-22 23:00N 35°59' W 005°13'815.2
2017-Jun-22 22:30N 35°58' W 005°22'714.0
2017-Jun-22 22:00N 35°56' W 005°30'713.4
2017-Jun-22 21:30N 35°55' W 005°38'2512.6
2017-Jun-22 19:32N 35°54' W 006°09'415.7
2017-Jun-22 19:16N 35°54' W 006°14'616.0
2017-Jun-22 18:55N 35°55' W 006°21'1116.3
2017-Jun-22 18:16N 35°59' W 006°33'416.3
2017-Jun-22 18:00N 35°60' W 006°38'816.1
2017-Jun-22 17:30N 36°02' W 006°48'816.0
2017-Jun-22 17:00N 36°03' W 006°58'916.1
2017-Jun-22 16:27N 36°06' W 007°09'816.0
2017-Jun-22 15:57N 36°08' W 007°18'716.3
2017-Jun-22 15:30N 36°09' W 007°27'815.9
2017-Jun-22 14:59N 36°12' W 007°37'1615.7
2017-Jun-22 13:58N 36°16' W 007°56'1816.0
2017-Jun-22 12:51N 36°21' W 008°17'616.3
2017-Jun-22 12:27N 36°23' W 008°25'916.1
2017-Jun-22 11:53N 36°25' W 008°36'615.8
2017-Jun-22 11:31N 36°27' W 008°43'816.0
2017-Jun-22 11:00N 36°29' W 008°53'815.8
2017-Jun-22 10:30N 36°30' W 009°02'815.7
2017-Jun-22 10:00N 36°32' W 009°12'815.1
2017-Jun-22 09:30N 36°36' W 009°20'815.7
2017-Jun-22 09:00N 36°42' W 009°26'815.3
2017-Jun-22 08:30N 36°48' W 009°33'715.2
2017-Jun-22 08:01N 36°55' W 009°35'815.7
2017-Jun-22 07:30N 37°03' W 009°37'1016.0
2017-Jun-22 06:53N 37°12' W 009°40'615.9
2017-Jun-22 06:30N 37°18' W 009°41'815.8
2017-Jun-22 05:59N 37°26' W 009°43'816.4
2017-Jun-22 05:30N 37°34' W 009°46'916.3
2017-Jun-22 04:57N 37°43' W 009°48'716.0
2017-Jun-22 04:30N 37°50' W 009°50'816.2
2017-Jun-22 04:01N 37°58' W 009°53'816.3
2017-Jun-22 03:30N 38°05' W 009°55'816.3
2017-Jun-22 03:00N 38°13' W 009°58'816.2
2017-Jun-22 02:30N 38°21' W 009°60'816.2
2017-Jun-22 02:00N 38°29' W 010°02'816.3
2017-Jun-22 01:30N 38°37' W 010°04'815.9
2017-Jun-22 01:01N 38°45' W 010°06'815.8
2017-Jun-22 00:30N 38°53' W 010°06'815.8
2017-Jun-22 00:01N 39°01' W 010°06'815.7
2017-Jun-21 23:30N 39°09' W 010°06'816.1
2017-Jun-21 23:00N 39°17' W 010°06'916.5
2017-Jun-21 22:29N 39°25' W 010°06'816.2
2017-Jun-21 22:00N 39°33' W 010°06'816.2
2017-Jun-21 21:30N 39°41' W 010°06'1716.2
2017-Jun-21 20:29N 39°58' W 010°06'816.0
2017-Jun-21 19:59N 40°06' W 010°06'916.1
2017-Jun-21 19:24N 40°15' W 010°06'916.3
2017-Jun-21 18:51N 40°24' W 010°06'27015.5
2017-Jun-21 01:27N 44°49' W 008°58'715.4
2017-Jun-21 01:01N 44°55' W 008°54'815.6
2017-Jun-21 00:31N 45°02' W 008°49'815.5
2017-Jun-21 00:00N 45°09' W 008°44'815.2
2017-Jun-20 23:30N 45°16' W 008°39'815.8
2017-Jun-20 23:01N 45°23' W 008°34'815.9
2017-Jun-20 22:31N 45°30' W 008°29'815.5
2017-Jun-20 22:00N 45°37' W 008°24'815.7
2017-Jun-20 21:30N 45°44' W 008°19'815.7
2017-Jun-20 21:00N 45°51' W 008°14'1015.8
2017-Jun-20 20:23N 45°60' W 008°07'1315.6
2017-Jun-20 19:34N 46°10' W 007°57'215.6
2017-Jun-20 19:28N 46°12' W 007°55'1015.4
2017-Jun-20 18:48N 46°20' W 007°48'515.5
2017-Jun-20 18:29N 46°25' W 007°44'1415.4
2017-Jun-20 17:33N 46°37' W 007°34'116.0
2017-Jun-20 17:29N 46°38' W 007°34'816.0
2017-Jun-20 17:00N 46°45' W 007°28'815.8
2017-Jun-20 16:30N 46°52' W 007°24'3115.8
2017-Jun-20 14:33N 47°19' W 007°02'115.4
2017-Jun-20 14:30N 47°20' W 007°02'2615.8
2017-Jun-20 12:52N 47°43' W 006°44'715.6
2017-Jun-20 12:26N 47°49' W 006°40'3115.1
2017-Jun-20 10:21N 48°17' W 006°17'515.1
2017-Jun-20 10:00N 48°21' W 006°14'715.1
2017-Jun-20 09:30N 48°28' W 006°09'815.3
2017-Jun-20 08:58N 48°35' W 006°03'815.6
2017-Jun-20 08:26N 48°43' W 005°56'715.9
2017-Jun-20 08:00N 48°48' W 005°52'816.1
2017-Jun-20 07:30N 48°55' W 005°45'816.6
2017-Jun-20 07:01N 48°60' W 005°34'816.8
2017-Jun-20 06:30N 49°04' W 005°23'815.9
2017-Jun-20 05:59N 49°08' W 005°12'612.6
2017-Jun-20 05:30N 49°11' W 005°04'611.6
2017-Jun-20 05:00N 49°14' W 004°56'612.3
2017-Jun-20 04:29N 49°17' W 004°48'715.8
2017-Jun-20 04:01N 49°21' W 004°38'1015.9
2017-Jun-20 03:24N 49°26' W 004°25'715.5
2017-Jun-20 02:56N 49°30' W 004°16'715.2
2017-Jun-20 02:27N 49°33' W 004°06'715.1
2017-Jun-20 01:58N 49°37' W 003°56'715.1
2017-Jun-20 01:30N 49°41' W 003°47'714.9
2017-Jun-20 01:00N 49°45' W 003°37'815.2
2017-Jun-20 00:30N 49°48' W 003°27'815.6
2017-Jun-20 00:00N 49°52' W 003°17'816.1
2017-Jun-19 23:30N 49°56' W 003°06'816.8
2017-Jun-19 23:00N 49°59' W 002°54'917.3
2017-Jun-19 22:30N 50°03' W 002°41'917.9
2017-Jun-19 22:00N 50°05' W 002°28'918.3
2017-Jun-19 21:30N 50°07' W 002°14'918.5
2017-Jun-19 21:00N 50°10' W 002°00'1218.3
2017-Jun-19 20:21N 50°13' W 001°42'617.8
2017-Jun-19 20:00N 50°15' W 001°33'917.0
2017-Jun-19 19:28N 50°20' W 001°21'816.8
2017-Jun-19 19:00N 50°25' W 001°11'816.4
2017-Jun-19 18:31N 50°29' W 001°01'815.3
2017-Jun-19 18:00N 50°37' W 000°59'510.3
2017-Jun-19 17:30N 50°42' W 000°58'611.5
2017-Jun-19 17:01N 50°45' W 001°06'612.3
2017-Jun-19 16:30N 50°46' W 001°16'4 7.7
2017-Jun-19 16:00N 50°50' W 001°18'4 8.9
2017-Jun-19 15:30N 50°53' W 001°23'1 1.7
2017-Jun-19 14:59N 50°53' W 001°24'0 0.0
2017-Jun-19 13:59N 50°53' W 001°24'0 0.0
2017-Jun-19 13:26N 50°53' W 001°24'0 0.0
2017-Jun-19 12:59N 50°53' W 001°24'0 0.0
2017-Jun-19 12:29N 50°53' W 001°24'0 0.0
2017-Jun-19 11:59N 50°53' W 001°24'0 0.0
2017-Jun-19 11:29N 50°53' W 001°24'0 0.0
2017-Jun-19 10:59N 50°53' W 001°24'0 0.0
2017-Jun-19 10:29N 50°53' W 001°24'0 0.0
2017-Jun-19 09:56N 50°53' W 001°24'0 0.0
2017-Jun-19 09:29N 50°53' W 001°24'0 0.0
2017-Jun-19 08:59N 50°53' W 001°24'0 0.0
2017-Jun-19 08:26N 50°53' W 001°24'0 0.0
2017-Jun-19 07:59N 50°53' W 001°24'0 0.0
2017-Jun-19 07:29N 50°53' W 001°24'0 0.0
2017-Jun-19 06:59N 50°53' W 001°24'0 0.0
2017-Jun-19 06:29N 50°53' W 001°24'0 0.0
2017-Jun-19 05:59N 50°53' W 001°24'0 0.0
2017-Jun-19 05:29N 50°53' W 001°24'0 0.0
2017-Jun-19 04:59N 50°53' W 001°24'0 0.0
2017-Jun-19 04:31N 50°53' W 001°24'2 3.5
2017-Jun-19 04:01N 50°52' W 001°22'5 9.6
2017-Jun-19 03:31N 50°48' W 001°18'5 9.0
2017-Jun-19 03:00N 50°46' W 001°12'713.4
2017-Jun-19 02:30N 50°43' W 001°02'510.6
2017-Jun-19 02:01N 50°40' W 000°55'3 6.6
2017-Jun-19 01:30N 50°38' W 000°51'3 5.8
2017-Jun-19 01:00N 50°37' W 000°47'4 8.6
2017-Jun-19 00:30N 50°36' W 000°40'5 9.6
2017-Jun-19 00:00N 50°35' W 000°33'611.5
2017-Jun-18 23:31N 50°34' W 000°24'713.7
2017-Jun-18 23:00N 50°33' W 000°13'815.3
2017-Jun-18 22:30N 50°32' W 000°01'917.3
2017-Jun-18 22:00N 50°35' E 000°12'917.3
2017-Jun-18 21:30N 50°37' E 000°25'816.8
2017-Jun-18 21:00N 50°40' E 000°37'816.6
2017-Jun-18 20:30N 50°45' E 000°48'816.1
2017-Jun-18 20:00N 50°49' E 000°58'815.7
2017-Jun-18 19:30N 50°54' E 001°08'815.0
2017-Jun-18 19:00N 50°59' E 001°17'714.6
2017-Jun-18 18:30N 51°04' E 001°26'815.2
2017-Jun-18 18:00N 51°08' E 001°36'815.3
2017-Jun-18 17:31N 51°13' E 001°45'815.8
2017-Jun-18 17:00N 51°20' E 001°53'816.5
2017-Jun-18 16:31N 51°26' E 002°00'917.1
2017-Jun-18 16:01N 51°33' E 002°09'917.1
2017-Jun-18 15:30N 51°39' E 002°18'917.5
2017-Jun-18 15:00N 51°46' E 002°27'917.4
2017-Jun-18 14:30N 51°53' E 002°36'917.1
2017-Jun-18 13:57N 52°00' E 002°46'816.9
2017-Jun-18 13:30N 52°06' E 002°54'816.6
2017-Jun-18 13:00N 52°12' E 003°03'816.2
2017-Jun-18 12:30N 52°19' E 003°11'815.8
2017-Jun-18 12:00N 52°25' E 003°17'815.4
2017-Jun-18 11:30N 52°32' E 003°24'815.1
2017-Jun-18 11:01N 52°38' E 003°31'714.8
2017-Jun-18 10:30N 52°44' E 003°39'714.7
2017-Jun-18 10:00N 52°49' E 003°47'714.5
2017-Jun-18 09:30N 52°55' E 003°55'714.5
2017-Jun-18 09:00N 52°60' E 004°04'714.8
2017-Jun-18 08:30N 53°05' E 004°13'815.4
2017-Jun-18 08:00N 53°10' E 004°22'815.7
2017-Jun-18 07:30N 53°17' E 004°28'816.3
2017-Jun-18 07:00N 53°24' E 004°34'815.9
2017-Jun-18 06:30N 53°29' E 004°45'816.7
2017-Jun-18 06:00N 53°34' E 004°57'816.5
2017-Jun-18 05:30N 53°37' E 005°10'816.2
2017-Jun-18 05:00N 53°39' E 005°23'816.1
2017-Jun-18 04:30N 53°42' E 005°36'815.5
2017-Jun-18 04:00N 53°45' E 005°48'815.1
2017-Jun-18 03:30N 53°47' E 006°00'815.2
2017-Jun-18 03:00N 53°49' E 006°12'714.7
2017-Jun-18 02:30N 53°51' E 006°24'814.5
2017-Jun-18 01:57N 53°52' E 006°38'714.6
2017-Jun-18 01:26N 53°54' E 006°50'1914.7
2017-Jun-18 00:08N 53°58' E 007°22'2212.3
2017-Jun-17 22:20N 53°52' E 007°58'515.2
2017-Jun-17 22:00N 53°50' E 008°06'816.4
2017-Jun-17 21:30N 53°44' E 008°15'816.5
2017-Jun-17 21:00N 53°38' E 008°26'511.0
2017-Jun-17 20:30N 53°34' E 008°32'1 1.0
2017-Jun-17 20:00N 53°34' E 008°33'1 1.0
2017-Jun-17 19:28N 53°35' E 008°33'0 0.0
2017-Jun-17 18:58N 53°35' E 008°33'0 0.0
2017-Jun-17 18:30N 53°35' E 008°33'0 0.0
2017-Jun-17 17:58N 53°35' E 008°33'0 0.0
2017-Jun-17 17:28N 53°35' E 008°33'0 0.0
2017-Jun-17 17:00N 53°35' E 008°33'0 0.0
2017-Jun-17 16:31N 53°35' E 008°33'0 0.0
2017-Jun-17 16:01N 53°35' E 008°33'0 0.0
2017-Jun-17 15:28N 53°35' E 008°33'0 0.0
2017-Jun-17 15:01N 53°35' E 008°33'0 0.0
2017-Jun-17 13:58N 53°35' E 008°33'0 0.0
2017-Jun-17 13:28N 53°35' E 008°33'0 0.0
2017-Jun-17 13:00N 53°35' E 008°33'0 0.0
2017-Jun-17 12:31N 53°35' E 008°33'0 0.0
2017-Jun-17 12:01N 53°35' E 008°33'0 0.0
2017-Jun-17 11:28N 53°35' E 008°33'0 0.0
2017-Jun-17 10:58N 53°35' E 008°33'0 0.0
2017-Jun-17 10:31N 53°35' E 008°33'0 0.0
2017-Jun-17 10:01N 53°35' E 008°33'0 0.0
2017-Jun-17 09:28N 53°35' E 008°33'0 0.0
2017-Jun-17 09:01N 53°35' E 008°33'0 0.0
2017-Jun-17 08:28N 53°35' E 008°33'0 0.0
2017-Jun-17 08:01N 53°35' E 008°33'0 0.0
2017-Jun-17 07:31N 53°35' E 008°33'0 0.0
2017-Jun-17 06:58N 53°35' E 008°33'0 0.0
2017-Jun-17 06:31N 53°35' E 008°33'0 0.0
2017-Jun-17 06:00N 53°35' E 008°33'0 0.0
2017-Jun-17 05:28N 53°35' E 008°33'0 0.0
2017-Jun-17 05:01N 53°35' E 008°33'0 0.0
2017-Jun-17 04:28N 53°35' E 008°33'0 0.0
2017-Jun-17 04:00N 53°35' E 008°33'0 0.0
2017-Jun-17 03:31N 53°35' E 008°33'0 0.0
2017-Jun-17 03:01N 53°35' E 008°33'0 0.0
2017-Jun-17 02:28N 53°35' E 008°33'0 0.0
2017-Jun-17 02:00N 53°35' E 008°33'0 0.9
2017-Jun-17 01:30N 53°34' E 008°33'0 0.8
2017-Jun-17 01:00N 53°34' E 008°33'4 7.2
2017-Jun-17 00:30N 53°37' E 008°29'713.2
2017-Jun-17 00:00N 53°41' E 008°21'816.1
2017-Jun-16 23:30N 53°46' E 008°10'815.6
2017-Jun-16 23:00N 53°51' E 007°60'95 6.2
2017-Jun-16 07:35N 53°33' E 005°22'216.0
2017-Jun-16 07:26N 53°32' E 005°18'715.7
2017-Jun-16 07:00N 53°30' E 005°07'815.6
2017-Jun-16 06:31N 53°27' E 004°55'915.1
2017-Jun-16 05:56N 53°23' E 004°42'715.0
2017-Jun-16 05:30N 53°18' E 004°37'815.2
2017-Jun-16 05:00N 53°11' E 004°32'715.0
2017-Jun-16 04:31N 53°04' E 004°26'715.0
2017-Jun-16 04:01N 52°58' E 004°19'715.0
2017-Jun-16 03:31N 52°51' E 004°14'714.8
2017-Jun-16 03:01N 52°45' E 004°07'715.0
2017-Jun-16 02:31N 52°40' E 003°58'714.8
2017-Jun-16 02:00N 52°35' E 003°49'714.7
2017-Jun-16 01:30N 52°30' E 003°41'714.6
2017-Jun-16 01:00N 52°25' E 003°31'714.5
2017-Jun-16 00:30N 52°20' E 003°23'1214.4
2017-Jun-15 23:40N 52°11' E 003°10'314.7
2017-Jun-15 23:27N 52°08' E 003°07'814.8
2017-Jun-15 22:56N 52°02' E 002°60'715.2
2017-Jun-15 22:28N 51°57' E 002°52'715.3
2017-Jun-15 22:00N 51°50' E 002°46'815.5
2017-Jun-15 21:30N 51°43' E 002°42'815.4
2017-Jun-15 21:01N 51°36' E 002°43'816.0
2017-Jun-15 20:31N 51°28' E 002°42'611.7
2017-Jun-15 20:00N 51°22' E 002°45'611.1
2017-Jun-15 19:30N 51°23' E 002°54'713.1
2017-Jun-15 19:00N 51°24' E 003°05'611.4
2017-Jun-15 18:30N 51°21' E 003°12'1 2.8
2017-Jun-15 18:00N 51°20' E 003°13'0 0.0
2017-Jun-15 17:30N 51°20' E 003°13'0 0.4
2017-Jun-15 17:00N 51°20' E 003°13'1 2.8
2017-Jun-15 16:28N 51°18' E 003°14'0 0.0
2017-Jun-15 15:58N 51°18' E 003°14'0 0.0
2017-Jun-15 15:28N 51°18' E 003°14'0 0.0
2017-Jun-15 14:58N 51°18' E 003°14'0 0.0
2017-Jun-15 14:28N 51°18' E 003°14'0 0.0
2017-Jun-15 13:28N 51°18' E 003°14'0 0.0
2017-Jun-15 12:58N 51°18' E 003°14'0 0.0
2017-Jun-15 12:30N 51°18' E 003°14'0 0.0
2017-Jun-15 11:58N 51°18' E 003°14'0 0.0
2017-Jun-15 11:28N 51°18' E 003°14'0 0.0
2017-Jun-15 10:58N 51°18' E 003°14'0 0.0
2017-Jun-15 10:28N 51°18' E 003°14'0 0.0
2017-Jun-15 09:58N 51°18' E 003°14'0 0.0
2017-Jun-15 09:28N 51°18' E 003°14'0 0.0
2017-Jun-15 08:59N 51°18' E 003°14'0 0.0
2017-Jun-15 08:28N 51°18' E 003°14'0 0.0
2017-Jun-15 07:58N 51°18' E 003°14'0 0.0
2017-Jun-15 07:28N 51°18' E 003°14'0 0.0
2017-Jun-15 06:58N 51°18' E 003°14'0 0.0
2017-Jun-15 06:28N 51°18' E 003°14'0 0.0
2017-Jun-15 05:58N 51°18' E 003°14'0 0.0
2017-Jun-15 05:28N 51°18' E 003°14'0 0.0
2017-Jun-15 04:58N 51°18' E 003°14'0 0.0
2017-Jun-15 04:28N 51°18' E 003°14'0 0.0
2017-Jun-15 03:58N 51°18' E 003°14'0 0.0
2017-Jun-15 03:28N 51°18' E 003°14'0 0.0
2017-Jun-15 02:58N 51°18' E 003°14'0 0.0
2017-Jun-15 02:28N 51°18' E 003°14'0 0.0
2017-Jun-15 01:58N 51°18' E 003°14'0 0.0
2017-Jun-15 01:28N 51°18' E 003°14'0 0.0
2017-Jun-15 00:58N 51°18' E 003°14'0 0.0
2017-Jun-15 00:28N 51°18' E 003°14'0 0.0
2017-Jun-14 23:58N 51°18' E 003°14'0 0.0
2017-Jun-14 23:28N 51°18' E 003°14'0 0.0
2017-Jun-14 22:58N 51°18' E 003°14'0 0.0
2017-Jun-14 22:28N 51°18' E 003°14'0 0.0
2017-Jun-14 21:58N 51°18' E 003°14'0 0.0
2017-Jun-14 21:28N 51°18' E 003°14'0 0.0
2017-Jun-14 20:58N 51°18' E 003°14'0 0.0
2017-Jun-14 20:28N 51°18' E 003°14'0 0.0
2017-Jun-14 19:58N 51°18' E 003°14'0 0.0
2017-Jun-14 19:28N 51°18' E 003°14'0 0.0
2017-Jun-14 18:58N 51°18' E 003°14'0 0.0
2017-Jun-14 18:28N 51°18' E 003°14'0 0.0
2017-Jun-14 17:58N 51°18' E 003°14'0 0.0
2017-Jun-14 17:28N 51°18' E 003°14'0 0.0
2017-Jun-14 16:58N 51°18' E 003°14'0 0.0
2017-Jun-14 16:28N 51°18' E 003°14'0 0.0
2017-Jun-14 15:58N 51°18' E 003°14'0 0.0
2017-Jun-14 15:28N 51°18' E 003°14'0 0.0
2017-Jun-14 14:58N 51°18' E 003°14'0 0.0
2017-Jun-14 14:00N 51°18' E 003°14'0 0.0
2017-Jun-14 13:30N 51°18' E 003°14'0 0.0
2017-Jun-14 13:00N 51°18' E 003°14'2 3.4
2017-Jun-14 12:30N 51°20' E 003°13'0 0.0
2017-Jun-14 12:00N 51°20' E 003°13'1 1.9
2017-Jun-14 11:30N 51°21' E 003°12'5 9.8
2017-Jun-14 11:00N 51°24' E 003°06'713.5
2017-Jun-14 10:30N 51°22' E 002°56'713.3
2017-Jun-14 10:00N 51°21' E 002°45'5 9.7
2017-Jun-14 09:30N 51°21' E 002°37'510.2
2017-Jun-14 09:01N 51°22' E 002°29'714.6
2017-Jun-14 08:30N 51°18' E 002°19'815.4
2017-Jun-14 08:01N 51°14' E 002°08'815.3
2017-Jun-14 07:30N 51°10' E 001°58'815.3
2017-Jun-14 07:01N 51°06' E 001°47'815.6
2017-Jun-14 06:31N 51°02' E 001°38'816.0
2017-Jun-14 06:01N 50°55' E 001°29'816.9
2017-Jun-14 05:30N 50°47' E 001°25'816.3
2017-Jun-14 05:01N 50°40' E 001°20'2116.0
2017-Jun-14 03:41N 50°28' E 000°52'315.8
2017-Jun-14 03:29N 50°27' E 000°48'1015.7
2017-Jun-14 02:49N 50°25' E 000°32'515.7
2017-Jun-14 02:30N 50°23' E 000°24'815.7
2017-Jun-14 02:00N 50°21' E 000°12'816.1
2017-Jun-14 01:31N 50°19' E 000°00'816.5
2017-Jun-14 01:01N 50°17' W 000°12'817.0
2017-Jun-14 00:31N 50°15' W 000°25'917.5
2017-Jun-14 00:01N 50°13' W 000°38'918.1
2017-Jun-13 23:31N 50°11' W 000°52'918.4
2017-Jun-13 23:01N 50°08' W 001°06'918.6
2017-Jun-13 22:31N 50°05' W 001°20'918.9
2017-Jun-13 22:01N 50°03' W 001°34'919.0
2017-Jun-13 21:31N 49°60' W 001°48'918.5
2017-Jun-13 21:01N 49°58' W 002°02'918.1
2017-Jun-13 20:31N 49°56' W 002°16'917.2
2017-Jun-13 20:01N 49°54' W 002°29'816.8
2017-Jun-13 19:31N 49°52' W 002°42'816.6
2017-Jun-13 19:01N 49°50' W 002°54'816.4
2017-Jun-13 18:30N 49°49' W 003°07'816.2
2017-Jun-13 18:00N 49°48' W 003°19'816.0
2017-Jun-13 17:31N 49°47' W 003°31'815.8
2017-Jun-13 17:01N 49°46' W 003°43'815.7
2017-Jun-13 16:31N 49°45' W 003°55'815.6
2017-Jun-13 16:01N 49°44' W 004°07'815.6
2017-Jun-13 15:31N 49°43' W 004°19'815.5
2017-Jun-13 15:01N 49°43' W 004°31'1515.3
2017-Jun-13 14:01N 49°41' W 004°55'815.0
2017-Jun-13 13:31N 49°42' W 005°07'815.0
2017-Jun-13 12:58N 49°43' W 005°19'715.0
2017-Jun-13 12:30N 49°43' W 005°30'815.2
2017-Jun-13 12:01N 49°43' W 005°41'  

Dump ship's entire track history